sensor_id;sensor_type;location;lat;lon;timestamp;pressure;altitude;pressure_sealevel;temperature;humidity
5966;BME280;3009;43.224;27.976;2023-01-28T00:01:34;99523.72;;;2.84;100.00
5966;BME280;3009;43.224;27.976;2023-01-28T00:04:03;99505.16;;;2.84;100.00
5966;BME280;3009;43.224;27.976;2023-01-28T00:06:31;99504.91;;;2.86;100.00
5966;BME280;3009;43.224;27.976;2023-01-28T00:08:59;99526.63;;;2.83;100.00
5966;BME280;3009;43.224;27.976;2023-01-28T00:11:27;99526.56;;;2.88;100.00
5966;BME280;3009;43.224;27.976;2023-01-28T00:13:55;99527.09;;;2.90;100.00
5966;BME280;3009;43.224;27.976;2023-01-28T00:16:26;99541.53;;;2.69;100.00
5966;BME280;3009;43.224;27.976;2023-01-28T00:18:56;99537.28;;;2.78;100.00
5966;BME280;3009;43.224;27.976;2023-01-28T00:21:24;99536.50;;;2.72;100.00
5966;BME280;3009;43.224;27.976;2023-01-28T00:23:54;99542.03;;;2.76;100.00
5966;BME280;3009;43.224;27.976;2023-01-28T00:26:23;99539.44;;;2.71;100.00
5966;BME280;3009;43.224;27.976;2023-01-28T00:28:52;99540.44;;;2.75;100.00
5966;BME280;3009;43.224;27.976;2023-01-28T00:31:22;99546.28;;;2.72;100.00
5966;BME280;3009;43.224;27.976;2023-01-28T00:33:53;99537.28;;;2.73;100.00
5966;BME280;3009;43.224;27.976;2023-01-28T00:36:23;99541.28;;;2.70;100.00
5966;BME280;3009;43.224;27.976;2023-01-28T00:38:53;99533.59;;;2.69;100.00
5966;BME280;3009;43.224;27.976;2023-01-28T00:41:23;99540.50;;;2.70;100.00
5966;BME280;3009;43.224;27.976;2023-01-28T00:43:52;99527.53;;;2.68;100.00
5966;BME280;3009;43.224;27.976;2023-01-28T00:46:22;99540.00;;;2.62;100.00
5966;BME280;3009;43.224;27.976;2023-01-28T00:48:52;99541.03;;;2.66;100.00
5966;BME280;3009;43.224;27.976;2023-01-28T00:51:20;99537.56;;;2.71;100.00
5966;BME280;3009;43.224;27.976;2023-01-28T00:53:49;99540.50;;;2.70;100.00
5966;BME280;3009;43.224;27.976;2023-01-28T00:56:18;99550.56;;;2.68;100.00
5966;BME280;3009;43.224;27.976;2023-01-28T00:58:47;99539.72;;;2.69;100.00
5966;BME280;3009;43.224;27.976;2023-01-28T01:01:18;99548.94;;;2.72;100.00
5966;BME280;3009;43.224;27.976;2023-01-28T01:03:47;99559.06;;;2.64;100.00
5966;BME280;3009;43.224;27.976;2023-01-28T01:06:24;99556.13;;;2.66;100.00
5966;BME280;3009;43.224;27.976;2023-01-28T01:08:53;99562.22;;;2.66;100.00
5966;BME280;3009;43.224;27.976;2023-01-28T01:11:22;99566.78;;;2.56;100.00
5966;BME280;3009;43.224;27.976;2023-01-28T01:13:52;99567.56;;;2.56;100.00
5966;BME280;3009;43.224;27.976;2023-01-28T01:16:22;99572.09;;;2.56;100.00
5966;BME280;3009;43.224;27.976;2023-01-28T01:18:50;99562.81;;;2.58;100.00
5966;BME280;3009;43.224;27.976;2023-01-28T01:21:21;99562.28;;;2.56;100.00
5966;BME280;3009;43.224;27.976;2023-01-28T01:23:51;99574.44;;;2.57;100.00
5966;BME280;3009;43.224;27.976;2023-01-28T01:26:20;99573.69;;;2.52;100.00
5966;BME280;3009;43.224;27.976;2023-01-28T01:28:49;99577.16;;;2.47;100.00
5966;BME280;3009;43.224;27.976;2023-01-28T01:31:18;99595.97;;;2.40;100.00
5966;BME280;3009;43.224;27.976;2023-01-28T01:33:49;99575.38;;;2.37;100.00
5966;BME280;3009;43.224;27.976;2023-01-28T01:36:17;99564.28;;;2.30;100.00
5966;BME280;3009;43.224;27.976;2023-01-28T01:38:53;99586.50;;;2.29;100.00
5966;BME280;3009;43.224;27.976;2023-01-28T01:41:25;99590.47;;;2.26;100.00
5966;BME280;3009;43.224;27.976;2023-01-28T01:43:56;99598.97;;;2.18;100.00
5966;BME280;3009;43.224;27.976;2023-01-28T01:46:31;99593.16;;;2.21;100.00
5966;BME280;3009;43.224;27.976;2023-01-28T01:49:07;99595.06;;;2.10;100.00
5966;BME280;3009;43.224;27.976;2023-01-28T01:51:40;99607.75;;;2.03;100.00
5966;BME280;3009;43.224;27.976;2023-01-28T01:54:12;99619.63;;;2.16;100.00
5966;BME280;3009;43.224;27.976;2023-01-28T01:56:42;99611.19;;;2.04;100.00
5966;BME280;3009;43.224;27.976;2023-01-28T01:59:14;99618.34;;;2.03;100.00
5966;BME280;3009;43.224;27.976;2023-01-28T02:01:45;99616.50;;;1.99;100.00
5966;BME280;3009;43.224;27.976;2023-01-28T02:04:18;99626.84;;;1.90;100.00
5966;BME280;3009;43.224;27.976;2023-01-28T02:06:47;99627.66;;;1.80;100.00
5966;BME280;3009;43.224;27.976;2023-01-28T02:09:27;99628.22;;;1.62;100.00
5966;BME280;3009;43.224;27.976;2023-01-28T02:11:58;99628.22;;;1.62;100.00
5966;BME280;3009;43.224;27.976;2023-01-28T02:14:30;99629.78;;;1.63;100.00
5966;BME280;3009;43.224;27.976;2023-01-28T02:17:00;99636.13;;;1.56;100.00
5966;BME280;3009;43.224;27.976;2023-01-28T02:19:33;99625.03;;;1.49;100.00
5966;BME280;3009;43.224;27.976;2023-01-28T02:22:09;99630.34;;;1.54;100.00
5966;BME280;3009;43.224;27.976;2023-01-28T02:25:21;99649.91;;;1.38;100.00
5966;BME280;3009;43.224;27.976;2023-01-28T02:28:18;99653.31;;;1.23;100.00
5966;BME280;3009;43.224;27.976;2023-01-28T02:30:54;99647.53;;;1.21;100.00
5966;BME280;3009;43.224;27.976;2023-01-28T02:33:28;99637.47;;;1.13;100.00
5966;BME280;3009;43.224;27.976;2023-01-28T02:36:04;99627.69;;;1.08;100.00
5966;BME280;3009;43.224;27.976;2023-01-28T02:38:40;99641.94;;;1.07;100.00
5966;BME280;3009;43.224;27.976;2023-01-28T02:41:14;99652.25;;;0.98;100.00
5966;BME280;3009;43.224;27.976;2023-01-28T02:43:47;99648.00;;;1.02;100.00
5966;BME280;3009;43.224;27.976;2023-01-28T02:46:33;99661.75;;;1.04;100.00
5966;BME280;3009;43.224;27.976;2023-01-28T02:49:24;99649.88;;;1.02;100.00
5966;BME280;3009;43.224;27.976;2023-01-28T02:52:22;99668.88;;;0.99;100.00
5966;BME280;3009;43.224;27.976;2023-01-28T02:55:09;99659.34;;;0.93;100.00
5966;BME280;3009;43.224;27.976;2023-01-28T02:57:46;99664.91;;;0.91;100.00
5966;BME280;3009;43.224;27.976;2023-01-28T03:00:22;99683.09;;;0.87;100.00
5966;BME280;3009;43.224;27.976;2023-01-28T03:03:00;99677.81;;;0.82;100.00
5966;BME280;3009;43.224;27.976;2023-01-28T03:05:36;99670.38;;;0.69;100.00
5966;BME280;3009;43.224;27.976;2023-01-28T03:08:07;99683.00;;;0.57;100.00
5966;BME280;3009;43.224;27.976;2023-01-28T03:10:50;99672.44;;;0.62;100.00
5966;BME280;3009;43.224;27.976;2023-01-28T03:13:37;99677.72;;;0.57;100.00
5966;BME280;3009;43.224;27.976;2023-01-28T03:16:26;99664.78;;;0.50;100.00
5966;BME280;3009;43.224;27.976;2023-01-28T03:19:16;99690.34;;;0.44;100.00
5966;BME280;3009;43.224;27.976;2023-01-28T03:22:02;99682.94;;;0.41;100.00
5966;BME280;3009;43.224;27.976;2023-01-28T03:24:50;99677.09;;;0.39;100.00
5966;BME280;3009;43.224;27.976;2023-01-28T03:27:40;99682.13;;;0.35;100.00
5966;BME280;3009;43.224;27.976;2023-01-28T03:30:34;99684.09;;;0.13;100.00
5966;BME280;3009;43.224;27.976;2023-01-28T03:33:25;99692.03;;;0.18;100.00
5966;BME280;3009;43.224;27.976;2023-01-28T03:36:10;99696.25;;;0.14;100.00
5966;BME280;3009;43.224;27.976;2023-01-28T03:38:56;99684.91;;;0.13;100.00
5966;BME280;3009;43.224;27.976;2023-01-28T03:41:25;99687.28;;;0.15;100.00
5966;BME280;3009;43.224;27.976;2023-01-28T03:43:53;99685.97;;;0.12;100.00
5966;BME280;3009;43.224;27.976;2023-01-28T03:46:21;99698.06;;;0.08;100.00
5966;BME280;3009;43.224;27.976;2023-01-28T03:48:51;99697.28;;;0.08;100.00
5966;BME280;3009;43.224;27.976;2023-01-28T03:51:19;99716.22;;;0.05;100.00
5966;BME280;3009;43.224;27.976;2023-01-28T03:53:47;99699.25;;;-0.10;100.00
5966;BME280;3009;43.224;27.976;2023-01-28T03:56:16;99700.88;;;-0.04;100.00
5966;BME280;3009;43.224;27.976;2023-01-28T03:58:45;99702.22;;;-0.01;100.00
5966;BME280;3009;43.224;27.976;2023-01-28T04:01:18;99706.94;;;-0.03;100.00
5966;BME280;3009;43.224;27.976;2023-01-28T04:03:46;99710.31;;;-0.13;100.00
5966;BME280;3009;43.224;27.976;2023-01-28T04:06:16;99714.81;;;-0.08;100.00
5966;BME280;3009;43.224;27.976;2023-01-28T04:08:44;99719.81;;;-0.12;100.00
5966;BME280;3009;43.224;27.976;2023-01-28T04:11:18;99734.06;;;-0.08;100.00
5966;BME280;3009;43.224;27.976;2023-01-28T04:13:47;99748.25;;;-0.14;100.00
5966;BME280;3009;43.224;27.976;2023-01-28T04:16:17;99723.47;;;-0.18;100.00
5966;BME280;3009;43.224;27.976;2023-01-28T04:18:46;99707.84;;;-0.25;100.00
5966;BME280;3009;43.224;27.976;2023-01-28T04:21:15;99728.91;;;-0.25;100.00
5966;BME280;3009;43.224;27.976;2023-01-28T04:23:43;99736.03;;;-0.25;100.00
5966;BME280;3009;43.224;27.976;2023-01-28T04:26:12;99742.41;;;-0.21;100.00
5966;BME280;3009;43.224;27.976;2023-01-28T04:28:40;99733.69;;;-0.22;100.00
5966;BME280;3009;43.224;27.976;2023-01-28T04:31:08;99741.81;;;-0.28;100.00
5966;BME280;3009;43.224;27.976;2023-01-28T04:33:36;99753.66;;;-0.26;100.00
5966;BME280;3009;43.224;27.976;2023-01-28T04:36:05;99751.84;;;-0.25;100.00
5966;BME280;3009;43.224;27.976;2023-01-28T04:38:34;99757.63;;;-0.28;100.00
5966;BME280;3009;43.224;27.976;2023-01-28T04:41:03;99757.97;;;-0.20;100.00
5966;BME280;3009;43.224;27.976;2023-01-28T04:43:31;99748.41;;;-0.26;100.00
5966;BME280;3009;43.224;27.976;2023-01-28T04:45:59;99747.59;;;-0.31;100.00
5966;BME280;3009;43.224;27.976;2023-01-28T04:48:27;99779.97;;;-0.31;100.00
5966;BME280;3009;43.224;27.976;2023-01-28T04:50:57;99765.53;;;-0.28;100.00
5966;BME280;3009;43.224;27.976;2023-01-28T04:53:25;99767.56;;;-0.36;100.00
5966;BME280;3009;43.224;27.976;2023-01-28T04:55:55;99760.16;;;-0.39;100.00
5966;BME280;3009;43.224;27.976;2023-01-28T04:58:23;99752.75;;;-0.42;100.00
5966;BME280;3009;43.224;27.976;2023-01-28T05:00:54;99751.50;;;-0.34;100.00
5966;BME280;3009;43.224;27.976;2023-01-28T05:03:23;99759.53;;;-0.51;100.00
5966;BME280;3009;43.224;27.976;2023-01-28T05:05:52;99747.78;;;-0.38;100.00
5966;BME280;3009;43.224;27.976;2023-01-28T05:08:20;99777.75;;;-0.44;100.00
5966;BME280;3009;43.224;27.976;2023-01-28T05:10:48;99771.44;;;-0.43;100.00
5966;BME280;3009;43.224;27.976;2023-01-28T05:13:18;99774.09;;;-0.43;100.00
5966;BME280;3009;43.224;27.976;2023-01-28T05:15:50;99769.25;;;-0.51;100.00
5966;BME280;3009;43.224;27.976;2023-01-28T05:18:19;99779.00;;;-0.52;100.00
5966;BME280;3009;43.224;27.976;2023-01-28T05:20:47;99795.09;;;-0.48;100.00
5966;BME280;3009;43.224;27.976;2023-01-28T05:23:15;99800.34;;;-0.48;100.00
5966;BME280;3009;43.224;27.976;2023-01-28T05:25:43;99779.78;;;-0.51;100.00
5966;BME280;3009;43.224;27.976;2023-01-28T05:28:12;99811.94;;;-0.49;100.00
5966;BME280;3009;43.224;27.976;2023-01-28T05:30:41;99806.63;;;-0.55;100.00
5966;BME280;3009;43.224;27.976;2023-01-28T05:33:10;99829.56;;;-0.50;100.00
5966;BME280;3009;43.224;27.976;2023-01-28T05:35:38;99820.03;;;-0.56;100.00
5966;BME280;3009;43.224;27.976;2023-01-28T05:38:06;99822.47;;;-0.49;100.00
5966;BME280;3009;43.224;27.976;2023-01-28T05:40:34;99821.38;;;-0.54;100.00
5966;BME280;3009;43.224;27.976;2023-01-28T05:43:02;99831.41;;;-0.50;100.00
5966;BME280;3009;43.224;27.976;2023-01-28T05:45:30;99842.16;;;-0.57;100.00
5966;BME280;3009;43.224;27.976;2023-01-28T05:48:00;99839.28;;;-0.56;100.00
5966;BME280;3009;43.224;27.976;2023-01-28T05:50:28;99836.69;;;-0.50;100.00
5966;BME280;3009;43.224;27.976;2023-01-28T05:52:56;99849.06;;;-0.51;100.00
5966;BME280;3009;43.224;27.976;2023-01-28T05:55:25;99838.22;;;-0.55;100.00
5966;BME280;3009;43.224;27.976;2023-01-28T05:57:53;99849.34;;;-0.47;100.00
5966;BME280;3009;43.224;27.976;2023-01-28T06:00:21;99858.41;;;-0.38;100.00
5966;BME280;3009;43.224;27.976;2023-01-28T06:02:50;99860.78;;;-0.37;100.00
5966;BME280;3009;43.224;27.976;2023-01-28T06:05:20;99865.81;;;-0.35;100.00
5966;BME280;3009;43.224;27.976;2023-01-28T06:07:48;99874.28;;;-0.33;100.00
5966;BME280;3009;43.224;27.976;2023-01-28T06:10:17;99889.03;;;-0.32;100.00
5966;BME280;3009;43.224;27.976;2023-01-28T06:12:45;99884.31;;;-0.30;100.00
5966;BME280;3009;43.224;27.976;2023-01-28T06:15:13;99885.34;;;-0.31;100.00
5966;BME280;3009;43.224;27.976;2023-01-28T06:17:41;99885.34;;;-0.31;100.00
5966;BME280;3009;43.224;27.976;2023-01-28T06:20:10;99909.84;;;-0.30;100.00
5966;BME280;3009;43.224;27.976;2023-01-28T06:22:40;99896.38;;;-0.34;100.00
5966;BME280;3009;43.224;27.976;2023-01-28T06:25:09;99907.22;;;-0.30;100.00
5966;BME280;3009;43.224;27.976;2023-01-28T06:27:39;99894.78;;;-0.35;100.00
5966;BME280;3009;43.224;27.976;2023-01-28T06:30:09;99895.94;;;-0.26;100.00
5966;BME280;3009;43.224;27.976;2023-01-28T06:32:37;99894.47;;;-0.16;100.00
5966;BME280;3009;43.224;27.976;2023-01-28T06:35:05;99925.53;;;-0.19;100.00
5966;BME280;3009;43.224;27.976;2023-01-28T06:37:36;99902.28;;;-0.27;100.00
5966;BME280;3009;43.224;27.976;2023-01-28T06:40:08;99910.56;;;-0.40;100.00
5966;BME280;3009;43.224;27.976;2023-01-28T06:42:36;99909.59;;;-0.29;100.00
5966;BME280;3009;43.224;27.976;2023-01-28T06:45:05;99906.16;;;-0.34;100.00
5966;BME280;3009;43.224;27.976;2023-01-28T06:47:33;99950.59;;;-0.38;100.00
5966;BME280;3009;43.224;27.976;2023-01-28T06:50:02;99916.09;;;-0.37;100.00
5966;BME280;3009;43.224;27.976;2023-01-28T06:52:30;99924.13;;;-0.26;100.00
5966;BME280;3009;43.224;27.976;2023-01-28T06:54:58;99930.69;;;-0.29;100.00
5966;BME280;3009;43.224;27.976;2023-01-28T06:57:28;99918.22;;;-0.39;100.00
5966;BME280;3009;43.224;27.976;2023-01-28T06:59:56;99926.59;;;-0.42;100.00
5966;BME280;3009;43.224;27.976;2023-01-28T07:02:25;99967.34;;;-0.49;100.00
5966;BME280;3009;43.224;27.976;2023-01-28T07:04:53;99934.13;;;-0.50;100.00
5966;BME280;3009;43.224;27.976;2023-01-28T07:07:21;99928.56;;;-0.54;100.00
5966;BME280;3009;43.224;27.976;2023-01-28T07:09:49;99931.78;;;-0.47;100.00
5966;BME280;3009;43.224;27.976;2023-01-28T07:12:18;99930.59;;;-0.39;100.00
5966;BME280;3009;43.224;27.976;2023-01-28T07:14:48;99940.81;;;-0.43;100.00
5966;BME280;3009;43.224;27.976;2023-01-28T07:17:16;99928.19;;;-0.41;100.00
5966;BME280;3009;43.224;27.976;2023-01-28T07:19:44;99938.41;;;-0.44;100.00
5966;BME280;3009;43.224;27.976;2023-01-28T07:22:12;99936.88;;;-0.40;100.00
5966;BME280;3009;43.224;27.976;2023-01-28T07:24:40;99940.94;;;-0.32;100.00
5966;BME280;3009;43.224;27.976;2023-01-28T07:27:08;99937.31;;;-0.26;100.00
5966;BME280;3009;43.224;27.976;2023-01-28T07:29:36;99926.47;;;-0.30;100.00
5966;BME280;3009;43.224;27.976;2023-01-28T07:32:06;99928.41;;;-0.20;100.00
5966;BME280;3009;43.224;27.976;2023-01-28T07:34:34;99920.88;;;-0.11;100.00
5966;BME280;3009;43.224;27.976;2023-01-28T07:37:05;99937.28;;;-0.04;98.50
5966;BME280;3009;43.224;27.976;2023-01-28T07:39:33;99932.81;;;-0.04;97.85
5966;BME280;3009;43.224;27.976;2023-01-28T07:42:02;99934.19;;;0.04;97.27
5966;BME280;3009;43.224;27.976;2023-01-28T07:44:30;99936.78;;;-0.01;97.39
5966;BME280;3009;43.224;27.976;2023-01-28T07:46:58;99932.13;;;0.06;97.03
5966;BME280;3009;43.224;27.976;2023-01-28T07:49:27;99924.47;;;0.05;97.05
5966;BME280;3009;43.224;27.976;2023-01-28T07:51:55;99929.25;;;0.08;96.80
5966;BME280;3009;43.224;27.976;2023-01-28T07:54:24;99928.44;;;0.07;96.60
5966;BME280;3009;43.224;27.976;2023-01-28T07:56:52;99936.34;;;0.07;97.08
5966;BME280;3009;43.224;27.976;2023-01-28T07:59:21;99941.59;;;0.07;97.23
5966;BME280;3009;43.224;27.976;2023-01-28T08:01:49;99936.47;;;0.23;97.20
5966;BME280;3009;43.224;27.976;2023-01-28T08:04:20;99934.44;;;0.30;95.98
5966;BME280;3009;43.224;27.976;2023-01-28T08:06:50;99939.47;;;0.31;96.00
5966;BME280;3009;43.224;27.976;2023-01-28T08:09:18;99940.81;;;0.34;95.62
5966;BME280;3009;43.224;27.976;2023-01-28T08:11:47;99946.38;;;0.38;94.17
5966;BME280;3009;43.224;27.976;2023-01-28T08:14:15;99938.97;;;0.34;93.85
5966;BME280;3009;43.224;27.976;2023-01-28T08:16:43;99955.53;;;0.30;94.52
5966;BME280;3009;43.224;27.976;2023-01-28T08:19:11;99956.66;;;0.39;94.04
5966;BME280;3009;43.224;27.976;2023-01-28T08:21:40;99961.44;;;0.42;92.94
5966;BME280;3009;43.224;27.976;2023-01-28T08:24:09;99970.94;;;0.38;92.98
5966;BME280;3009;43.224;27.976;2023-01-28T08:26:37;99979.09;;;0.37;93.28
5966;BME280;3009;43.224;27.976;2023-01-28T08:29:05;99978.63;;;0.45;93.12
5966;BME280;3009;43.224;27.976;2023-01-28T08:31:34;99998.88;;;0.39;93.38
5966;BME280;3009;43.224;27.976;2023-01-28T08:34:02;100007.97;;;0.53;92.55
5966;BME280;3009;43.224;27.976;2023-01-28T08:36:30;100002.25;;;0.62;91.78
5966;BME280;3009;43.224;27.976;2023-01-28T08:38:58;100017.28;;;0.61;91.39
5966;BME280;3009;43.224;27.976;2023-01-28T08:41:28;100020.06;;;0.49;91.90
5966;BME280;3009;43.224;27.976;2023-01-28T08:43:56;100028.53;;;0.79;91.80
5966;BME280;3009;43.224;27.976;2023-01-28T08:46:26;100020.28;;;0.70;91.15
5966;BME280;3009;43.224;27.976;2023-01-28T08:48:54;100018.22;;;0.77;91.24
5966;BME280;3009;43.224;27.976;2023-01-28T08:51:22;100009.81;;;0.80;89.94
5966;BME280;3009;43.224;27.976;2023-01-28T08:53:50;100008.81;;;0.92;89.07
5966;BME280;3009;43.224;27.976;2023-01-28T08:56:18;99999.28;;;0.85;88.64
5966;BME280;3009;43.224;27.976;2023-01-28T08:58:48;100006.13;;;1.19;87.50
5966;BME280;3009;43.224;27.976;2023-01-28T09:01:16;100002.19;;;1.27;86.77
5966;BME280;3009;43.224;27.976;2023-01-28T09:03:44;99999.03;;;1.30;86.29
5966;BME280;3009;43.224;27.976;2023-01-28T09:06:13;99998.00;;;1.31;86.69
5966;BME280;3009;43.224;27.976;2023-01-28T09:08:41;99985.44;;;1.48;86.19
5966;BME280;3009;43.224;27.976;2023-01-28T09:11:09;99994.38;;;1.42;85.19
5966;BME280;3009;43.224;27.976;2023-01-28T09:13:37;99999.88;;;1.35;84.58
5966;BME280;3009;43.224;27.976;2023-01-28T09:16:08;99999.88;;;1.35;84.99
5966;BME280;3009;43.224;27.976;2023-01-28T09:18:36;100013.13;;;1.40;85.15
5966;BME280;3009;43.224;27.976;2023-01-28T09:21:05;100017.50;;;1.19;84.87
5966;BME280;3009;43.224;27.976;2023-01-28T09:23:34;100018.78;;;1.17;85.50
5966;BME280;3009;43.224;27.976;2023-01-28T09:26:04;100029.41;;;0.90;86.32
5966;BME280;3009;43.224;27.976;2023-01-28T09:28:32;100042.50;;;1.12;86.05
5966;BME280;3009;43.224;27.976;2023-01-28T09:31:02;100036.75;;;1.15;85.49
5966;BME280;3009;43.224;27.976;2023-01-28T09:33:33;100039.00;;;1.01;86.94
5966;BME280;3009;43.224;27.976;2023-01-28T09:36:04;100058.19;;;0.91;87.23
5966;BME280;3009;43.224;27.976;2023-01-28T09:38:32;100066.22;;;1.01;87.67
5966;BME280;3009;43.224;27.976;2023-01-28T09:41:08;100077.06;;;1.10;87.07
5966;BME280;3009;43.224;27.976;2023-01-28T09:43:48;100066.06;;;0.59;87.43
5966;BME280;3009;43.224;27.976;2023-01-28T09:46:20;100069.06;;;0.67;88.95
5966;BME280;3009;43.224;27.976;2023-01-28T09:48:51;100073.94;;;0.81;87.88
5966;BME280;3009;43.224;27.976;2023-01-28T09:51:28;100072.91;;;1.14;86.85
5966;BME280;3009;43.224;27.976;2023-01-28T09:54:02;100065.16;;;0.75;86.48
5966;BME280;3009;43.224;27.976;2023-01-28T09:56:35;100063.16;;;0.87;86.82
5966;BME280;3009;43.224;27.976;2023-01-28T09:59:16;100045.94;;;0.80;87.60
5966;BME280;3009;43.224;27.976;2023-01-28T10:01:51;100045.38;;;0.73;89.03
5966;BME280;3009;43.224;27.976;2023-01-28T10:04:30;100045.28;;;0.95;87.14
5966;BME280;3009;43.224;27.976;2023-01-28T10:07:16;100029.19;;;0.96;86.85
5966;BME280;3009;43.224;27.976;2023-01-28T10:09:50;100034.88;;;1.15;87.23
5966;BME280;3009;43.224;27.976;2023-01-28T10:12:45;100019.38;;;1.29;86.63
5966;BME280;3009;43.224;27.976;2023-01-28T10:15:33;100015.53;;;1.47;84.66
5966;BME280;3009;43.224;27.976;2023-01-28T10:18:08;100012.03;;;1.36;84.96
5966;BME280;3009;43.224;27.976;2023-01-28T10:20:48;100013.34;;;1.34;84.25
5966;BME280;3009;43.224;27.976;2023-01-28T10:23:20;100008.72;;;1.14;84.21
5966;BME280;3009;43.224;27.976;2023-01-28T10:25:50;100002.41;;;1.15;84.83
5966;BME280;3009;43.224;27.976;2023-01-28T10:28:20;100005.94;;;1.36;84.22
5966;BME280;3009;43.224;27.976;2023-01-28T10:30:50;100001.06;;;1.12;85.55
5966;BME280;3009;43.224;27.976;2023-01-28T10:33:30;100000.91;;;1.34;84.55
5966;BME280;3009;43.224;27.976;2023-01-28T10:36:05;100009.09;;;1.33;84.97
5966;BME280;3009;43.224;27.976;2023-01-28T10:38:35;100007.47;;;1.21;84.63
5966;BME280;3009;43.224;27.976;2023-01-28T10:41:04;100014.16;;;0.97;85.73
5966;BME280;3009;43.224;27.976;2023-01-28T10:43:44;100021.41;;;0.79;86.97
5966;BME280;3009;43.224;27.976;2023-01-28T10:46:17;100028.31;;;0.85;86.31
5966;BME280;3009;43.224;27.976;2023-01-28T10:48:51;100022.84;;;0.92;87.08
5966;BME280;3009;43.224;27.976;2023-01-28T10:51:35;100028.56;;;1.16;85.63
5966;BME280;3009;43.224;27.976;2023-01-28T10:54:23;100034.88;;;0.83;86.17
5966;BME280;3009;43.224;27.976;2023-01-28T10:56:54;100048.41;;;1.24;85.75
5966;BME280;3009;43.224;27.976;2023-01-28T10:59:25;100034.56;;;1.49;84.99
5966;BME280;3009;43.224;27.976;2023-01-28T11:01:56;100040.28;;;1.36;83.74
5966;BME280;3009;43.224;27.976;2023-01-28T11:04:27;100037.84;;;1.24;83.53
5966;BME280;3009;43.224;27.976;2023-01-28T11:06:59;100051.13;;;0.97;85.60
5966;BME280;3009;43.224;27.976;2023-01-28T11:09:29;100056.25;;;1.14;85.34
5966;BME280;3009;43.224;27.976;2023-01-28T11:11:58;100058.25;;;1.34;85.48
5966;BME280;3009;43.224;27.976;2023-01-28T11:14:37;100067.34;;;1.11;84.82
5966;BME280;3009;43.224;27.976;2023-01-28T11:17:12;100066.50;;;1.05;85.17
5966;BME280;3009;43.224;27.976;2023-01-28T11:19:43;100061.50;;;0.76;86.05
5966;BME280;3009;43.224;27.976;2023-01-28T11:22:22;100073.03;;;0.43;87.54
5966;BME280;3009;43.224;27.976;2023-01-28T11:24:52;100076.72;;;0.69;87.12
5966;BME280;3009;43.224;27.976;2023-01-28T11:27:28;100089.16;;;0.46;88.53
5966;BME280;3009;43.224;27.976;2023-01-28T11:29:57;100068.69;;;0.59;88.39
5966;BME280;3009;43.224;27.976;2023-01-28T11:32:29;100072.69;;;0.61;87.34
5966;BME280;3009;43.224;27.976;2023-01-28T11:34:58;100062.00;;;0.46;87.99
5966;BME280;3009;43.224;27.976;2023-01-28T11:37:28;100070.16;;;0.72;87.99
5966;BME280;3009;43.224;27.976;2023-01-28T11:40:14;100068.63;;;0.76;88.35
5966;BME280;3009;43.224;27.976;2023-01-28T11:42:49;100073.22;;;0.63;87.85
5966;BME280;3009;43.224;27.976;2023-01-28T11:45:20;100072.44;;;0.63;87.53
5966;BME280;3009;43.224;27.976;2023-01-28T11:48:13;100078.31;;;0.70;88.15
5966;BME280;3009;43.224;27.976;2023-01-28T11:50:50;100070.84;;;0.62;87.63
5966;BME280;3009;43.224;27.976;2023-01-28T11:53:46;100078.75;;;0.62;88.68
5966;BME280;3009;43.224;27.976;2023-01-28T11:56:32;100066.88;;;0.86;88.33
5966;BME280;3009;43.224;27.976;2023-01-28T11:59:20;100082.88;;;0.52;88.33
5966;BME280;3009;43.224;27.976;2023-01-28T12:01:55;100087.47;;;0.35;89.65
5966;BME280;3009;43.224;27.976;2023-01-28T12:04:44;100089.03;;;0.36;89.89
5966;BME280;3009;43.224;27.976;2023-01-28T12:07:26;100098.00;;;0.35;90.52
5966;BME280;3009;43.224;27.976;2023-01-28T12:10:02;100107.75;;;0.57;90.17
5966;BME280;3009;43.224;27.976;2023-01-28T12:12:43;100100.44;;;0.64;89.45
5966;BME280;3009;43.224;27.976;2023-01-28T12:15:30;100109.44;;;0.68;89.50
5966;BME280;3009;43.224;27.976;2023-01-28T12:18:16;100119.53;;;0.49;89.10
5966;BME280;3009;43.224;27.976;2023-01-28T12:20:56;100118.03;;;0.36;90.25
5966;BME280;3009;43.224;27.976;2023-01-28T12:23:46;100121.66;;;0.30;90.66
5966;BME280;3009;43.224;27.976;2023-01-28T12:26:27;100128.69;;;0.41;90.81
5966;BME280;3009;43.224;27.976;2023-01-28T12:29:13;100114.09;;;0.33;90.68
5966;BME280;3009;43.224;27.976;2023-01-28T12:32:02;100120.84;;;0.24;90.76
5966;BME280;3009;43.224;27.976;2023-01-28T12:34:56;100126.47;;;0.11;91.27
5966;BME280;3009;43.224;27.976;2023-01-28T12:37:39;100117.19;;;0.08;92.17
5966;BME280;3009;43.224;27.976;2023-01-28T12:40:20;100122.78;;;0.12;92.79
5966;BME280;3009;43.224;27.976;2023-01-28T12:42:57;100117.31;;;0.19;91.89
5966;BME280;3009;43.224;27.976;2023-01-28T12:45:32;100123.16;;;0.21;91.82
5966;BME280;3009;43.224;27.976;2023-01-28T12:48:10;100134.50;;;0.43;91.60
5966;BME280;3009;43.224;27.976;2023-01-28T12:50:44;100139.78;;;0.43;90.59
5966;BME280;3009;43.224;27.976;2023-01-28T12:53:22;100145.47;;;0.35;90.53
5966;BME280;3009;43.224;27.976;2023-01-28T12:55:54;100148.13;;;0.35;90.73
5966;BME280;3009;43.224;27.976;2023-01-28T12:58:35;100154.66;;;0.10;90.90
5966;BME280;3009;43.224;27.976;2023-01-28T13:01:09;100159.31;;;0.03;93.25
5966;BME280;3009;43.224;27.976;2023-01-28T13:03:41;100158.28;;;0.26;92.56
5966;BME280;3009;43.224;27.976;2023-01-28T13:06:16;100164.44;;;0.32;91.31
5966;BME280;3009;43.224;27.976;2023-01-28T13:08:47;100163.19;;;0.17;91.35
5966;BME280;3009;43.224;27.976;2023-01-28T13:11:17;100170.47;;;0.10;91.76
5966;BME280;3009;43.224;27.976;2023-01-28T13:13:46;100176.84;;;0.14;91.64
5966;BME280;3009;43.224;27.976;2023-01-28T13:16:15;100178.59;;;0.26;91.08
5966;BME280;3009;43.224;27.976;2023-01-28T13:18:46;100192.97;;;0.35;90.27
5966;BME280;3009;43.224;27.976;2023-01-28T13:21:27;100197.50;;;0.40;90.79
5966;BME280;3009;43.224;27.976;2023-01-28T13:24:06;100189.75;;;0.33;89.64
5966;BME280;3009;43.224;27.976;2023-01-28T13:26:42;100203.63;;;0.23;89.78
5966;BME280;3009;43.224;27.976;2023-01-28T13:29:30;100191.53;;;0.27;89.78
5966;BME280;3009;43.224;27.976;2023-01-28T13:31:59;100190.94;;;0.03;89.68
5966;BME280;3009;43.224;27.976;2023-01-28T13:34:34;100214.28;;;-0.06;90.16
5966;BME280;3009;43.224;27.976;2023-01-28T13:37:06;100221.94;;;-0.04;90.42
5966;BME280;3009;43.224;27.976;2023-01-28T13:39:46;100222.25;;;-0.01;90.44